ADDS METAR Data INFO
IDs: Format: Raw Decoded Include TAF

Data at: 2207 UTC 24 Feb 2018

KPNC 242153Z AUTO 31013G21KT 10SM FEW023 SCT035 BKN047 09/02 A2983 RMK AO2 SLP102 T00890022
KPNC 242053Z AUTO 28007G16KT 10SM BKN021 OVC027 07/02 A2982 RMK AO2 SLP099 T00670022 55011
KPNC 242002Z AUTO 29012G20KT 10SM BKN015 OVC022 07/03 A2980 RMK AO2 T00670028
KPNC 241953Z AUTO 29012G19KT 10SM BKN013 OVC020 07/03 A2981 RMK AO2 SLP095 T00720033
KPNC 241927Z AUTO 29008KT 10SM OVC011 06/03 A2981 RMK AO2 T00610033
KPNC 241853Z AUTO 25008KT 10SM OVC008 06/03 A2982 RMK AO2 SLP102 T00560033
KPNC 241753Z AUTO 26007KT 10SM OVC006 05/03 A2985 RMK AO2 SLP111 60025 T00500028 10050 20022 55003
KPNC 241653Z AUTO 24005KT 10SM OVC005 03/02 A2985 RMK AO2 RAE22UPB16E21 SLP109 P0002 T00330022
KPNC 241605Z AUTO 27004KT 5SM -RA BR BKN004 BKN025 OVC060 03/02 A2987 RMK AO2 LTG DSNT N P0002 T00280017
KPNC 241553Z AUTO 33003KT 2SM RA BR BKN004 BKN017 OVC060 02/01 A2984 RMK AO2 LTG DSNT N AND NE UPB1457E00RAB00 SLP110 P0023 T00220011
KPNC 241528Z AUTO 27003KT 2 1/2SM VCTS +RA BR BKN004 OVC029 03/02 A2990 RMK AO2 LTG DSNT ALQDS UPB1457E00RAB00 P0010 T00280017
KPNC 241453Z AUTO 05004KT 8SM OVC003 02/01 A2986 RMK AO2 LTG DSNT SE-SW SLP115 T00220011 55030
KPNC 241353Z AUTO 04009KT 4SM BR OVC003 02/01 A2985 RMK AO2 SLP113 T00220011
KPNC 241331Z AUTO 03007KT 4SM BR OVC002 02/01 A2988 RMK AO2 PRESFR T00220011
KPNC 241322Z AUTO 05004KT 2 1/2SM BR OVC002 02/01 A2990 RMK AO2 T00220011
KPNC 241311Z AUTO 02003KT 1 3/4SM BR OVC003 02/01 A2992 RMK AO2 T00220011
KPNC 241253Z AUTO 36007KT 2 1/2SM BR OVC002 02/01 A2991 RMK AO2 SLP133 T00220011
KPNC 241231Z AUTO 36010KT 1 3/4SM BR OVC003 02/01 A2992 RMK AO2 PRESFR T00220011
KPNC 241225Z AUTO 35006KT 3SM BR OVC003 02/01 A2994 RMK AO2 T00220011
KPNC 241201Z AUTO 00000KT 2SM BR OVC003 02/02 A2996 RMK AO2 T00220017
KPNC 241153Z AUTO 00000KT 1 3/4SM BR OVC003 02/01 A2995 RMK AO2 SLP146 70015 T00220011 10022 20017 55004
KPNC 241144Z AUTO 01004KT 1 1/2SM BR OVC003 02/01 A2993 RMK AO2 T00220011
KPNC 241130Z AUTO 00000KT 2SM BR OVC003 02/01 A2995 RMK AO2 T00220011
KPNC 241053Z AUTO 09004KT 8SM OVC004 02/01 A2993 RMK AO2 SLP139 T00220011
KPNC 240953Z AUTO 04007KT 4SM BR OVC003 02/01 A2992 RMK AO2 SLP134 T00220011
KPNC 240944Z AUTO 04006KT 3SM BR OVC004 02/01 A2993 RMK AO2 T00170006
KPNC 240853Z AUTO 03006KT 2SM BR OVC003 02/01 A2996 RMK AO2 SLP151 T00220011 58021
KPNC 240818Z AUTO 34006KT 1 3/4SM BR OVC003 02/01 A2999 RMK AO2 T00220011
KPNC 240753Z AUTO 36005KT 2 1/2SM BR OVC004 02/01 A3000 RMK AO2 SLP163 T00220011
KPNC 240732Z AUTO 03004KT 2 1/2SM BR OVC004 02/01 A3000 RMK AO2 T00220011
KPNC 240653Z AUTO 04005KT 5SM BR OVC005 02/01 A3001 RMK AO2 SLP168 T00220011
KPNC 240553Z AUTO 05007KT 3SM BR BKN005 OVC011 02/01 A3003 RMK AO2 UPE21 SLP172 P0000 60001 T00220011 10033 20022 400390011 58014
KPNC 240539Z AUTO 04007KT 2 1/2SM BR BKN005 OVC011 02/01 A3003 RMK AO2 UPE21 P0000 T00220011
KPNC 240503Z AUTO 02008KT 2SM UP BR OVC004 02/01 A3005 RMK AO2 P0000 T00220011
KPNC 240453Z AUTO 01007KT 2 1/2SM UP BR OVC005 03/02 A3005 RMK AO2 UPB07E31B53 SLP181 P0000 T00280017
KPNC 240353Z AUTO 03008KT 2 1/2SM BR OVC005 03/02 A3007 RMK AO2 SLP187 T00280017
KPNC 240253Z AUTO 05010KT 3SM BR OVC006 03/02 A3008 RMK AO2 SLP190 60001 T00280017 58018
KPNC 240153Z AUTO 06008KT 3SM BR OVC006 03/02 A3010 RMK AO2 UPB06E21 CIG 004V009 SLP198 P0001 T00280017
KPNC 240139Z AUTO 05009KT 3SM BR OVC006 03/02 A3011 RMK AO2 UPB06E21 P0001 T00280017
KPNC 240113Z AUTO 06008KT 2 1/2SM UP BR OVC006 03/02 A3011 RMK AO2 UPB06 CIG 005V010 P0000 T00280017
KPNC 240053Z AUTO 04009KT 3SM BR OVC007 03/02 A3012 RMK AO2 SLP204 T00330017
KPNC 232353Z AUTO 05010G15KT 3SM BR BKN007 OVC028 03/02 A3013 RMK AO2 RAE48 SLP209 P0001 60014 T00330022 10039 20033 58016
KPNC 232336Z AUTO 05009KT 2 1/2SM -RA BR BKN007 BKN028 OVC036 03/02 A3013 RMK AO2 P0001 T00330022
KPNC 232313Z AUTO 06010KT 3SM -RA BR SCT007 BKN033 OVC046 04/02 A3013 RMK AO2 P0000 T00390022
KPNC 232303Z AUTO 07008KT 5SM -RA BR BKN007 BKN032 OVC046 04/02 A3014 RMK AO2 P0000 T00390022
KPNC 232253Z AUTO 05008KT 2 1/2SM RA BR SCT007 BKN029 OVC048 04/02 A3014 RMK AO2 RAE18B39 SLP211 P0004 T00390022
KPNC 232240Z AUTO 03007KT 7SM -RA FEW008 SCT012 OVC048 04/02 A3014 RMK AO2 RAE18B39 P0002 T00390022
KPNC 232233Z AUTO 05008KT 10SM FEW008 BKN012 OVC050 04/02 A3015 RMK AO2 RAE18 P0001 T00390017
KPNC 232224Z AUTO 04009KT 10SM BKN011 OVC055 04/02 A3015 RMK AO2 RAE18 P0001 T00390017
KPNC 232216Z AUTO 04009KT 9SM -RA BKN008 BKN013 OVC060 04/02 A3016 RMK AO2 P0001 T00390022
KPNC 232153Z AUTO 03006KT 5SM RA BR OVC012 04/02 A3017 RMK AO2 SLP223 P0008 T00390017
KPNC 232131Z AUTO 03005KT 5SM -RA BR OVC010 04/02 A3019 RMK AO2 P0007 T00390017
KPNC 232053Z AUTO 03006KT 10SM -RA OVC008 03/02 A3018 RMK AO2 RAB30 SLP225 P0001 60001 T00330017 58032
KPNC 231953Z AUTO 02006KT 10SM OVC007 04/02 A3022 RMK AO2 SLP237 T00390017
KPNC 231853Z AUTO 13006KT 10SM OVC009 03/01 A3027 RMK AO2 SLP254 T00330011
KPNC 231753Z AUTO 08006KT 10SM OVC008 03/01 A3028 RMK AO2 SLP258 T00330006 10033 20011 55003
KPNC 231653Z AUTO 10008KT 10SM OVC008 03/01 A3028 RMK AO2 SLP257 T00280006
KPNC 231553Z AUTO 04011KT 10SM OVC008 03/01 A3026 RMK AO2 SLP251 T00280006
KPNC 231453Z AUTO 08005KT 10SM OVC009 02/00 A3029 RMK AO2 SLP262 T00220000 51016
KPNC 231353Z AUTO 10003KT 6SM BR OVC009 02/00 A3028 RMK AO2 SLP258 T00170000
KPNC 231341Z AUTO 06004KT 6SM BR OVC009 02/00 A3026 RMK AO2 T00170000
KPNC 231253Z AUTO 00000KT 7SM OVC010 01/00 A3027 RMK AO2 PRESRR SLP257 T00110000
KPNC 231211Z AUTO 00000KT 6SM BR FEW005 OVC010 01/00 A3025 RMK AO2 T00110000
KPNC 231153Z AUTO 04004KT 5SM BR BKN005 OVC010 01/00 A3024 RMK AO2 SLP246 70024 T00110000 10017 20011 53005
KPNC 231053Z AUTO 02003KT 5SM BR OVC005 01/00 A3022 RMK AO2 CIG 003V009 SLP239 T00110000